Hay River, Canada
Current Conditions -  °F | °C
As of 9:00 PM on Saturday 20 Dec 2014 (Local Time) from CYHY Reporting Station
Overcast Overcast  
Wind Chill: 10°   Ceiling: 800
Heat Index: 10°   Visibility: 15mi
Dew Point:   Wind: 3mph
Humidity: 85%   Direction: 50°NE
Pressure: 29.53"   Gusts: NA
Location:  60.82°N, 115.78°W
Report Text: CYHY 210400Z 05003KT 010V070 15SM OVC008 M12/M14 A2953 RMK ST8 SLP016
Loading
Personal Weather Stations






























Interactive Weather Map New forecast layout! Learn more

10-Day Weather Forecast

Advertisements
Track Severe Weather on mobile